Apalachia Observed Data For Previous 48 Hours

Caption
Day and Hour Reservoir Elevation (behind dam)* Tailwater Elevation (below dam)* Average Hourly Discharge*
2/22/2020 2 AM EST 1,277.58 842.73 8,813
2/22/2020 3 AM EST 1,277.56 842.75 8,813
2/22/2020 4 AM EST 1,277.52 842.77 8,803
2/22/2020 5 AM EST 1,277.48 842.77 8,802
2/22/2020 6 AM EST 1,277.45 842.78 8,791
2/22/2020 7 AM EST 1,277.50 842.78 8,798
2/22/2020 8 AM EST 1,277.61 842.75 8,803
2/22/2020 9 AM EST 1,277.64 842.72 8,821
2/22/2020 10 AM EST 1,277.64 842.76 8,817
2/22/2020 11 AM EST 1,277.72 842.75 8,826
2/22/2020 12 PM EST 1,277.72 842.76 8,832
2/22/2020 1 PM EST 1,277.72 842.79 8,827
2/22/2020 2 PM EST 1,277.63 842.72 8,826
2/22/2020 3 PM EST 1,277.56 842.75 8,809
2/22/2020 4 PM EST 1,277.52 842.78 8,807
2/22/2020 5 PM EST 1,277.47 842.76 8,798
2/22/2020 6 PM EST 1,277.45 842.76 8,793
2/22/2020 7 PM EST 1,277.40 842.77 8,787
2/22/2020 8 PM EST 1,277.46 842.74 8,792
2/22/2020 9 PM EST 1,277.56 842.74 8,798
2/22/2020 10 PM EST 1,277.56 842.75 8,812
2/22/2020 11 PM EST 1,277.68 842.75 8,813
2/23/2020 12 AM EST 1,277.67 842.76 8,823
2/23/2020 1 AM EST 1,277.62 842.71 8,818
2/23/2020 2 AM EST 1,277.61 842.75 8,819
2/23/2020 3 AM EST 1,277.61 842.76 8,807
2/23/2020 4 AM EST 1,277.52 842.73 8,809
2/23/2020 5 AM EST 1,277.48 842.79 8,798
2/23/2020 6 AM EST 1,277.52 842.77 8,801
2/23/2020 7 AM EST 1,277.59 842.74 8,809
2/23/2020 8 AM EST 1,277.69 842.75 8,816
2/23/2020 9 AM EST 1,277.75 842.76 8,832
2/23/2020 10 AM EST 1,277.80 842.71 8,837
2/23/2020 11 AM EST 1,277.88 842.76 8,848
2/23/2020 12 PM EST 1,277.86 842.76 8,849
2/23/2020 1 PM EST 1,277.82 842.74 8,851
2/23/2020 2 PM EST 1,277.82 842.72 8,838
2/23/2020 3 PM EST 1,277.76 842.77 8,844
2/23/2020 4 PM EST 1,277.70 842.74 8,829
2/23/2020 5 PM EST 1,277.67 842.74 8,828
2/23/2020 6 PM EST 1,277.61 842.72 8,818
2/23/2020 7 PM EST 1,277.58 842.76 8,814
2/23/2020 8 PM EST 1,277.61 842.73 8,808
2/23/2020 9 PM EST 1,277.67 842.73 8,822
2/23/2020 10 PM EST 1,277.67 842.73 8,819
2/23/2020 11 PM EST 1,277.81 842.70 8,835
2/24/2020 12 AM EST 1,277.81 842.75 8,844
2/24/2020 1 AM EST 1,277.78 842.74 8,839
2/24/2020 2 AM EST 1,277.46 842.75 8,820
2/24/2020 3 AM EST 1,277.10 842.76 8,766
2/24/2020 4 AM EST 1,277.10 842.76 8,740
2/24/2020 5 AM EST 1,277.10 842.76 8,734
2/24/2020 6 AM EST 1,276.04 842.69 8,668
2/24/2020 7 AM EST 1,275.92 842.70 8,577
2/24/2020 8 AM EST 1,275.98 842.69 8,578
2/24/2020 9 AM EST 1,276.13 841.85 7,188
2/24/2020 10 AM EST 1,276.37 842.05 7,606
2/24/2020 11 AM EST 1,276.37 842.03 7,688
2/24/2020 12 PM EST 1,276.63 842.03 7,824
2/24/2020 1 PM EST 1,276.77 841.87 7,498
2/24/2020 2 PM EST 1,276.92 842.70 8,467
2/24/2020 3 PM EST 1,277.02 842.71 8,706
2/24/2020 4 PM EST 1,277.10 842.76 8,724
2/24/2020 5 PM EST 1,277.16 842.71 8,731
2/24/2020 6 PM EST 1,277.26 842.74 8,747
2/24/2020 7 PM EST 1,277.32 842.75 8,758
2/24/2020 8 PM EST 1,277.39 842.78 8,763
2/24/2020 9 PM EST 1,277.44 842.74 8,778
2/24/2020 10 PM EST 1,277.49 842.79 8,779

Elevations are in feet above sea level. Discharges are in cubic feet per second and are reported at the end of the hour.